createdAt,value
2023-04-09T04:33:31.918Z,610.30
2023-04-09T04:36:08.073Z,611.38
2023-04-09T04:38:35.462Z,606.30
2023-04-09T04:41:02.670Z,614.13
2023-04-09T04:43:29.454Z,603.92
2023-04-09T04:45:56.409Z,606.75
2023-04-09T04:48:23.079Z,599.28
2023-04-09T04:50:59.887Z,598.70
2023-04-09T04:53:27.069Z,600.08
2023-04-09T04:55:54.279Z,604.65
2023-04-09T04:58:20.923Z,605.75
2023-04-09T05:00:47.822Z,605.70
2023-04-09T05:03:15.030Z,598.33
2023-04-09T05:05:41.923Z,605.20
2023-04-09T05:08:08.569Z,602.35
2023-04-09T05:10:35.493Z,602.40
2023-04-09T05:13:02.145Z,612.43
2023-04-09T05:15:28.805Z,615.08
2023-04-09T05:17:55.638Z,612.63
2023-04-09T05:20:22.384Z,610.20
2023-04-09T05:22:48.973Z,610.50
2023-04-09T05:25:16.448Z,616.25
2023-04-09T05:27:43.280Z,617.90
2023-04-09T05:30:10.297Z,624.75
2023-04-09T05:32:37.304Z,623.67
2023-04-09T05:35:04.269Z,622.10
2023-04-09T05:37:31.476Z,629.73
2023-04-09T05:39:58.388Z,629.90
2023-04-09T05:42:25.246Z,635.58
2023-04-09T05:44:51.912Z,640.72
2023-04-09T05:47:18.522Z,651.85
2023-04-09T05:49:45.146Z,645.92
2023-04-09T05:52:11.814Z,640.00
2023-04-09T05:54:38.494Z,656.72
2023-04-09T05:57:05.131Z,660.33
2023-04-09T05:59:31.773Z,675.55
2023-04-09T06:01:58.445Z,678.10
2023-04-09T06:04:25.185Z,685.28
2023-04-09T06:06:52.021Z,686.40
2023-04-09T06:09:20.438Z,679.15
2023-04-09T06:11:47.080Z,689.63
2023-04-09T06:14:16.450Z,677.92
2023-04-09T06:16:43.196Z,678.17
2023-04-09T06:19:09.817Z,685.90
2023-04-09T06:21:36.464Z,690.72
2023-04-09T06:24:03.214Z,690.13
2023-04-09T06:26:29.839Z,685.33
2023-04-09T06:28:56.460Z,690.22
2023-04-09T06:31:23.113Z,691.70
2023-04-09T06:33:49.869Z,689.67
2023-04-09T06:36:16.548Z,691.60
2023-04-09T06:38:43.169Z,688.22
2023-04-09T06:41:12.557Z,686.22
2023-04-09T06:43:39.160Z,693.28
2023-04-09T06:46:05.896Z,697.63
2023-04-09T06:48:32.605Z,691.90
2023-04-09T06:50:59.234Z,698.58
2023-04-09T06:53:25.951Z,693.78
2023-04-09T06:55:52.797Z,698.88
2023-04-09T06:58:20.963Z,695.60
2023-04-09T07:00:47.589Z,706.47
2023-04-09T07:03:14.969Z,707.93
2023-04-09T07:05:41.905Z,709.47
2023-04-09T07:08:08.566Z,707.55
2023-04-09T07:10:35.164Z,715.67
2023-04-09T07:13:01.763Z,717.40
2023-04-09T07:15:28.400Z,724.83
2023-04-09T07:17:55.284Z,734.38
2023-04-09T07:20:21.920Z,726.15
2023-04-09T07:22:48.546Z,729.47
2023-04-09T07:25:16.046Z,736.40
2023-04-09T07:27:43.317Z,741.07
2023-04-09T07:30:11.046Z,765.80
2023-04-09T07:32:40.586Z,770.17
2023-04-09T07:35:09.723Z,767.95
2023-04-09T07:37:36.405Z,768.13
2023-04-09T07:40:06.051Z,765.90
2023-04-09T07:42:32.839Z,776.92
2023-04-09T07:44:59.480Z,783.47
2023-04-09T07:47:26.886Z,792.70
2023-04-09T07:49:53.557Z,787.40
2023-04-09T07:52:20.260Z,785.03
2023-04-09T07:54:46.911Z,788.35
2023-04-09T07:57:13.528Z,806.28
2023-04-09T07:59:40.188Z,800.33
2023-04-09T08:02:07.846Z,807.67
2023-04-09T08:04:34.745Z,810.97
2023-04-09T08:07:01.479Z,816.17
2023-04-09T08:09:28.132Z,815.45
2023-04-09T08:11:54.792Z,819.93
2023-04-09T08:14:21.459Z,825.08
2023-04-09T08:16:49.935Z,821.30
2023-04-09T08:19:17.510Z,824.58
2023-04-09T08:21:44.653Z,834.58
2023-04-09T08:24:12.075Z,836.22
2023-04-09T08:26:39.618Z,863.95
2023-04-09T08:29:06.443Z,891.08
2023-04-09T08:31:33.263Z,911.95
2023-04-09T08:34:00.146Z,945.05
2023-04-09T08:36:27.695Z,975.47
2023-04-09T08:38:55.982Z,999.90
2023-04-09T08:41:25.379Z,999.90
2023-04-09T08:43:58.136Z,999.90
2023-04-09T08:46:26.438Z,999.90
2023-04-09T08:48:53.972Z,999.90
2023-04-09T08:51:23.175Z,999.90
2023-04-09T08:53:56.590Z,999.90
2023-04-09T08:56:23.883Z,999.90
2023-04-09T08:58:51.641Z,999.90
2023-04-09T09:01:29.683Z,999.90
2023-04-09T09:04:04.155Z,999.90
2023-04-09T09:06:33.780Z,999.90
2023-04-09T09:09:16.990Z,999.90
2023-04-09T09:11:48.585Z,999.90
2023-04-09T09:14:17.895Z,999.90
2023-04-09T09:16:56.653Z,999.90
2023-04-09T09:19:26.685Z,999.90
2023-04-09T09:22:01.724Z,999.90
2023-04-09T09:24:28.927Z,999.90
2023-04-09T09:26:57.218Z,999.90
2023-04-09T09:29:23.878Z,999.90
2023-04-09T09:31:52.862Z,999.90
2023-04-09T09:34:21.104Z,999.90
2023-04-09T09:36:48.136Z,999.90
2023-04-09T09:39:17.407Z,999.90
2023-04-09T09:41:48.659Z,998.97
2023-04-09T09:44:32.265Z,987.55
2023-04-09T09:46:59.616Z,986.30
2023-04-09T09:49:26.296Z,977.80
2023-04-09T09:51:56.668Z,964.67
2023-04-09T09:54:25.579Z,956.58
2023-04-09T09:56:55.833Z,955.92
2023-04-09T09:59:32.563Z,952.75
2023-04-09T10:02:06.029Z,940.70
2023-04-09T10:04:37.993Z,937.83
2023-04-09T10:07:07.221Z,922.33
2023-04-09T10:09:39.643Z,950.78
2023-04-09T10:12:08.377Z,977.53
2023-04-09T10:14:36.011Z,979.70
2023-04-09T10:17:04.070Z,984.78
2023-04-09T10:19:39.794Z,999.90
2023-04-09T10:22:11.498Z,999.90
2023-04-09T10:24:38.911Z,999.90
2023-04-09T10:27:15.986Z,990.80
2023-04-09T10:29:45.662Z,989.20
2023-04-09T10:32:13.274Z,983.88
2023-04-09T10:34:42.664Z,988.80
2023-04-09T10:37:20.408Z,981.85
2023-04-09T10:39:48.635Z,969.72
2023-04-09T10:42:24.754Z,969.30
2023-04-09T10:45:12.079Z,979.17
2023-04-09T10:47:41.330Z,981.67
2023-04-09T10:50:18.244Z,971.08
2023-04-09T10:52:45.385Z,960.25
2023-04-09T10:55:41.168Z,972.50
2023-04-09T10:58:11.957Z,980.83
2023-04-09T11:00:45.123Z,999.90
2023-04-09T11:03:22.167Z,999.90
2023-04-09T11:05:52.996Z,999.90
2023-04-09T11:08:21.951Z,999.90
2023-04-09T11:10:51.710Z,999.90
2023-04-09T11:13:20.871Z,999.90
2023-04-09T11:15:47.764Z,999.90
2023-04-09T11:18:19.675Z,999.90
2023-04-09T11:20:46.586Z,994.33
2023-04-09T11:23:14.291Z,990.03
2023-04-09T11:25:41.248Z,980.73
2023-04-09T11:28:08.630Z,980.90
2023-04-09T11:30:36.066Z,996.03
2023-04-09T11:33:03.129Z,999.90
2023-04-09T11:35:29.926Z,999.90
2023-04-09T11:37:56.583Z,999.90
2023-04-09T11:40:25.814Z,999.90
2023-04-09T11:42:54.782Z,999.90
2023-04-09T11:45:26.886Z,999.90
2023-04-09T11:47:54.043Z,999.90
2023-04-09T11:50:21.521Z,999.90
2023-04-09T11:52:49.702Z,999.90
2023-04-09T11:55:27.871Z,999.90
2023-04-09T11:57:58.020Z,999.90
2023-04-09T12:00:25.044Z,999.90
2023-04-09T12:02:59.676Z,999.90
2023-04-09T12:05:29.600Z,999.90
2023-04-09T12:08:01.180Z,999.90
2023-04-09T12:10:29.990Z,995.60
2023-04-09T12:13:03.064Z,989.78
2023-04-09T12:15:34.573Z,995.35
2023-04-09T12:18:01.564Z,986.23
2023-04-09T12:20:33.162Z,982.47
2023-04-09T12:23:02.788Z,979.20
2023-04-09T12:25:35.512Z,984.03
2023-04-09T12:28:03.224Z,974.13
2023-04-09T12:30:30.021Z,970.90
2023-04-09T12:32:56.907Z,971.80
2023-04-09T12:35:23.602Z,961.42
2023-04-09T12:37:51.007Z,962.88
2023-04-09T12:40:19.448Z,967.08
2023-04-09T12:42:46.629Z,975.80
2023-04-09T12:45:15.497Z,976.92
2023-04-09T12:47:42.896Z,985.33
2023-04-09T12:50:11.597Z,994.97
2023-04-09T12:52:38.437Z,996.95
2023-04-09T12:55:06.558Z,999.90
2023-04-09T12:57:33.249Z,999.90
2023-04-09T13:00:00.382Z,999.90
2023-04-09T13:02:27.195Z,999.90
2023-04-09T13:04:53.957Z,999.70
2023-04-09T13:07:20.672Z,992.33
2023-04-09T13:09:48.917Z,999.78
2023-04-09T13:12:16.343Z,986.58
2023-04-09T13:14:46.657Z,991.53
2023-04-09T13:17:13.840Z,990.40
2023-04-09T13:19:42.712Z,985.53
2023-04-09T13:22:10.480Z,986.10
2023-04-09T13:24:38.090Z,988.78
2023-04-09T13:27:05.871Z,991.08
2023-04-09T13:29:32.538Z,994.90
2023-04-09T13:32:01.600Z,999.90
2023-04-09T13:34:28.362Z,999.90
2023-04-09T13:36:55.019Z,999.90
2023-04-09T13:39:21.687Z,999.90
2023-04-09T13:41:48.399Z,999.90
2023-04-09T13:44:15.658Z,995.50
2023-04-09T13:46:42.426Z,990.58
2023-04-09T13:49:09.157Z,977.92
2023-04-09T13:51:35.936Z,982.95
2023-04-09T13:54:05.248Z,984.25
2023-04-09T13:56:32.765Z,991.40
2023-04-09T13:58:59.418Z,998.50
2023-04-09T14:01:28.163Z,998.10
2023-04-09T14:03:55.297Z,992.40
2023-04-09T14:06:22.295Z,997.45
2023-04-09T14:08:49.075Z,996.33
2023-04-09T14:11:16.693Z,995.65
2023-04-09T14:13:43.319Z,999.90
2023-04-09T14:16:10.195Z,999.90
2023-04-09T14:18:36.818Z,999.90
2023-04-09T14:21:03.531Z,999.90
2023-04-09T14:23:30.245Z,999.90
2023-04-09T14:25:56.943Z,999.60
2023-04-09T14:28:23.648Z,999.83
2023-04-09T14:30:50.256Z,999.90
2023-04-09T14:33:16.903Z,999.90
2023-04-09T14:35:43.573Z,999.90
2023-04-09T14:38:10.450Z,999.90
2023-04-09T14:40:37.170Z,999.90
2023-04-09T14:43:03.860Z,999.90
2023-04-09T14:45:30.906Z,999.90
2023-04-09T14:47:57.809Z,999.90
2023-04-09T14:50:24.489Z,999.90
2023-04-09T14:52:51.159Z,999.90
2023-04-09T14:55:17.931Z,999.90
2023-04-09T14:57:44.604Z,999.90
2023-04-09T15:00:12.265Z,999.90
2023-04-09T15:02:39.373Z,999.90
2023-04-09T15:05:06.856Z,999.90
2023-04-09T15:07:33.773Z,999.90
2023-04-09T15:10:00.593Z,999.90
2023-04-09T15:12:28.485Z,999.00
2023-04-09T15:14:56.662Z,997.85
2023-04-09T15:17:23.947Z,984.13
2023-04-09T15:19:51.994Z,983.00
2023-04-09T15:22:18.751Z,986.23
2023-04-09T15:24:45.536Z,988.65
2023-04-09T15:27:12.186Z,999.78
2023-04-09T15:29:38.825Z,998.90
2023-04-09T15:32:05.518Z,999.90
2023-04-09T15:34:32.234Z,999.90
2023-04-09T15:36:58.883Z,999.85
2023-04-09T15:39:28.244Z,999.90
2023-04-09T15:41:57.594Z,999.90
2023-04-09T15:44:25.235Z,999.90
2023-04-09T15:46:51.910Z,991.85
2023-04-09T15:49:19.460Z,990.93
2023-04-09T15:51:46.390Z,996.03
2023-04-09T15:54:13.039Z,992.47
2023-04-09T15:56:40.265Z,988.85
2023-04-09T15:59:08.221Z,989.83
2023-04-09T16:01:36.287Z,992.63
2023-04-09T16:04:04.307Z,986.60
2023-04-09T16:06:31.300Z,986.28
2023-04-09T16:08:57.925Z,987.38
2023-04-09T16:11:24.692Z,984.50
2023-04-09T16:13:52.235Z,983.70
2023-04-09T16:16:19.120Z,986.23
2023-04-09T16:18:45.952Z,991.47
2023-04-09T16:21:12.692Z,980.70
2023-04-09T16:23:39.826Z,981.55
2023-04-09T16:26:07.223Z,990.70
2023-04-09T16:28:33.906Z,987.03
2023-04-09T16:31:00.835Z,989.10
2023-04-09T16:33:27.576Z,984.20
2023-04-09T16:35:54.330Z,987.93
2023-04-09T16:38:21.103Z,987.40
2023-04-09T16:40:47.783Z,986.10
2023-04-09T16:43:14.501Z,985.58
2023-04-09T16:45:41.172Z,986.33
2023-04-09T16:48:12.339Z,980.33
2023-04-09T16:50:39.955Z,977.72
2023-04-09T16:53:06.811Z,977.17
2023-04-09T16:55:34.709Z,976.17
2023-04-09T16:58:01.765Z,978.08
2023-04-09T17:00:28.587Z,971.67
2023-04-09T17:02:57.575Z,967.38
2023-04-09T17:05:24.644Z,972.35
2023-04-09T17:07:52.371Z,969.00
2023-04-09T17:10:19.520Z,969.60
2023-04-09T17:12:47.246Z,962.35
2023-04-09T17:15:14.195Z,962.17
2023-04-09T17:17:41.099Z,959.37
2023-04-09T17:20:08.250Z,962.83
2023-04-09T17:22:35.402Z,963.20
2023-04-09T17:25:02.563Z,962.40
2023-04-09T17:27:29.248Z,950.60
2023-04-09T17:29:56.340Z,947.78
2023-04-09T17:32:23.105Z,938.30
2023-04-09T17:34:50.481Z,939.17
2023-04-09T17:37:17.097Z,931.95
2023-04-09T17:39:43.813Z,923.25
2023-04-09T17:42:14.534Z,925.58
2023-04-09T17:44:43.639Z,925.30
2023-04-09T17:47:12.275Z,922.22
2023-04-09T17:49:39.345Z,916.58
2023-04-09T17:52:06.133Z,919.22
2023-04-09T17:54:37.955Z,913.97
2023-04-09T17:57:04.934Z,904.10
2023-04-09T17:59:33.049Z,909.83
2023-04-09T18:02:00.145Z,907.03
2023-04-09T18:04:27.497Z,895.05
2023-04-09T18:06:54.787Z,894.97
2023-04-09T18:09:21.829Z,877.10
2023-04-09T18:11:49.019Z,879.13
2023-04-09T18:14:15.762Z,890.15
2023-04-09T18:16:42.588Z,896.13
2023-04-09T18:19:10.125Z,870.13
2023-04-09T18:21:36.910Z,861.55
2023-04-09T18:24:04.185Z,867.50
2023-04-09T18:26:31.349Z,861.53
2023-04-09T18:29:00.835Z,872.33
2023-04-09T18:31:28.560Z,865.60
2023-04-09T18:33:56.118Z,855.70
2023-04-09T18:36:22.901Z,844.50
2023-04-09T18:38:49.587Z,828.78
2023-04-09T18:41:26.753Z,829.75
2023-04-09T18:43:54.104Z,816.58
2023-04-09T18:46:20.948Z,822.10
2023-04-09T18:48:47.672Z,818.67
2023-04-09T18:51:14.697Z,820.38
2023-04-09T18:53:41.910Z,817.00
2023-04-09T18:56:08.781Z,805.38
2023-04-09T18:58:36.101Z,818.45
2023-04-09T19:01:11.465Z,816.90
2023-04-09T19:03:39.044Z,809.85
2023-04-09T19:06:18.408Z,808.08
2023-04-09T19:08:46.366Z,809.17
2023-04-09T19:11:13.938Z,806.67
2023-04-09T19:13:40.755Z,804.72
2023-04-09T19:16:09.296Z,805.65
2023-04-09T19:18:37.199Z,790.38
2023-04-09T19:21:05.290Z,781.05
2023-04-09T19:23:34.157Z,787.20
2023-04-09T19:26:01.734Z,785.67
2023-04-09T19:28:28.638Z,784.17
2023-04-09T19:30:55.353Z,772.90
2023-04-09T19:33:23.092Z,780.20
2023-04-09T19:35:50.619Z,773.75
2023-04-09T19:38:18.146Z,763.20
2023-04-09T19:40:45.477Z,767.63
2023-04-09T19:43:12.313Z,761.42
2023-04-09T19:45:39.673Z,756.30
2023-04-09T19:48:07.078Z,747.55
2023-04-09T19:50:43.592Z,766.50
2023-04-09T19:53:10.872Z,751.90
2023-04-09T19:55:37.696Z,741.67
2023-04-09T19:58:05.698Z,742.83
2023-04-09T20:00:33.464Z,741.10
2023-04-09T20:03:00.452Z,745.50
2023-04-09T20:05:27.748Z,734.38
2023-04-09T20:07:54.591Z,743.08
2023-04-09T20:10:21.500Z,737.28
2023-04-09T20:12:49.323Z,787.13
2023-04-09T20:15:17.534Z,757.47
2023-04-09T20:17:44.313Z,738.42
2023-04-09T20:20:12.057Z,737.78
2023-04-09T20:22:43.006Z,735.65
2023-04-09T20:25:11.758Z,735.53
2023-04-09T20:27:38.839Z,732.15
2023-04-09T20:30:06.499Z,734.65
2023-04-09T20:32:33.300Z,727.17
2023-04-09T20:35:00.019Z,729.85
2023-04-09T20:37:26.716Z,724.45
2023-04-09T20:39:53.380Z,725.70
2023-04-09T20:42:20.216Z,719.55
2023-04-09T20:44:46.881Z,713.25
2023-04-09T20:47:15.318Z,711.25
2023-04-09T20:49:42.988Z,719.83
2023-04-09T20:52:09.906Z,715.92
2023-04-09T20:54:36.640Z,715.38
2023-04-09T20:57:05.536Z,716.17
2023-04-09T20:59:32.143Z,718.53
2023-04-09T21:01:58.966Z,716.67
2023-04-09T21:04:26.340Z,705.40
2023-04-09T21:06:53.185Z,706.60
2023-04-09T21:09:19.958Z,716.70
2023-04-09T21:11:46.829Z,699.83
2023-04-09T21:14:14.609Z,694.72
2023-04-09T21:16:41.329Z,700.90
2023-04-09T21:19:08.051Z,696.22
2023-04-09T21:21:35.360Z,699.58
2023-04-09T21:24:02.056Z,695.75
2023-04-09T21:26:33.682Z,707.78
2023-04-09T21:29:05.208Z,702.37
2023-04-09T21:31:32.288Z,693.53
2023-04-09T21:33:58.999Z,705.22
2023-04-09T21:36:28.884Z,704.15
2023-04-09T21:38:55.635Z,707.58
2023-04-09T21:41:23.546Z,699.33
2023-04-09T21:43:50.191Z,687.88
2023-04-09T21:46:16.837Z,700.20
2023-04-09T21:48:43.555Z,700.72
2023-04-09T21:51:11.547Z,696.88
2023-04-09T21:53:38.233Z,694.85
2023-04-09T21:56:05.303Z,684.00
2023-04-09T21:58:32.432Z,685.42
2023-04-09T22:00:59.162Z,681.15
2023-04-09T22:03:26.884Z,687.28
2023-04-09T22:05:53.735Z,684.03
2023-04-09T22:08:20.512Z,682.88
2023-04-09T22:10:47.445Z,684.97
2023-04-09T22:13:14.093Z,686.03
2023-04-09T22:15:41.811Z,691.13
2023-04-09T22:18:08.486Z,672.73
2023-04-09T22:20:36.131Z,677.17
2023-04-09T22:23:03.108Z,670.72
2023-04-09T22:25:34.783Z,675.77
2023-04-09T22:28:01.786Z,673.42
2023-04-09T22:30:28.407Z,669.25
2023-04-09T22:32:55.288Z,677.80
2023-04-09T22:35:21.984Z,671.22
2023-04-09T22:37:48.596Z,676.28
2023-04-09T22:40:16.066Z,671.10
2023-04-09T22:42:46.648Z,675.85
2023-04-09T22:45:13.851Z,672.55
2023-04-09T22:47:40.646Z,671.45
2023-04-09T22:50:08.248Z,671.40
2023-04-09T22:52:34.950Z,672.80
2023-04-09T22:55:01.879Z,665.37
2023-04-09T22:57:28.766Z,673.65
2023-04-09T22:59:55.367Z,674.97
